createdAt,value
2023-04-25T00:00:00.083Z,0
2023-04-25T00:02:17.425Z,0
2023-04-25T00:03:26.599Z,0
2023-04-25T00:04:35.813Z,0
2023-04-25T00:05:43.957Z,0
2023-04-25T00:06:52.174Z,0
2023-04-25T00:08:01.333Z,0
2023-04-25T00:09:10.499Z,0
2023-04-25T00:10:19.678Z,0
2023-04-25T00:12:38.017Z,0
2023-04-25T00:13:47.188Z,0
2023-04-25T00:14:56.362Z,0
2023-04-25T00:16:05.535Z,0
2023-04-25T00:17:14.713Z,0
2023-04-25T00:18:23.885Z,0
2023-04-25T00:19:33.056Z,0
2023-04-25T00:20:42.228Z,0
2023-04-25T00:21:50.421Z,0
2023-04-25T00:22:59.593Z,0
2023-04-25T00:24:08.765Z,0
2023-04-25T00:25:17.942Z,0
2023-04-25T00:26:27.106Z,0
2023-04-25T00:27:36.424Z,0
2023-04-25T00:28:45.448Z,0
2023-04-25T00:29:54.615Z,0
2023-04-25T00:31:02.820Z,0
2023-04-25T00:32:11.011Z,0
2023-04-25T00:33:19.197Z,0
2023-04-25T00:34:27.390Z,0
2023-04-25T00:35:36.556Z,0
2023-04-25T00:36:45.720Z,0
2023-04-25T00:37:54.910Z,0
2023-04-25T00:39:04.077Z,0
2023-04-25T00:40:13.251Z,0
2023-04-25T00:41:22.422Z,0
2023-04-25T00:42:31.633Z,0
2023-04-25T00:43:40.890Z,0
2023-04-25T00:44:50.000Z,0
2023-04-25T00:45:59.213Z,0
2023-04-25T00:47:08.363Z,0
2023-04-25T00:48:17.494Z,0
2023-04-25T00:49:25.676Z,0
2023-04-25T00:50:34.848Z,0
2023-04-25T00:52:53.207Z,0
2023-04-25T00:54:02.374Z,0
2023-04-25T00:55:11.547Z,0
2023-04-25T00:56:20.717Z,0
2023-04-25T00:57:29.907Z,0
2023-04-25T00:58:39.076Z,0
2023-04-25T00:59:48.238Z,0
2023-04-25T01:00:57.398Z,0
2023-04-25T01:02:06.575Z,0
2023-04-25T01:03:14.771Z,0
2023-04-25T01:04:22.956Z,0
2023-04-25T01:05:31.151Z,0
2023-04-25T01:06:39.342Z,0
2023-04-25T01:07:48.520Z,0
2023-04-25T01:08:57.676Z,0
2023-04-25T01:10:06.856Z,0
2023-04-25T01:11:16.039Z,0
2023-04-25T01:12:25.209Z,0
2023-04-25T01:14:43.547Z,0
2023-04-25T01:15:52.727Z,0
2023-04-25T01:18:11.068Z,0
2023-04-25T01:19:20.264Z,0
2023-04-25T01:20:28.440Z,0
2023-04-25T01:21:36.634Z,0
2023-04-25T01:22:45.796Z,0
2023-04-25T01:23:54.970Z,0
2023-04-25T01:25:04.144Z,0
2023-04-25T01:26:13.317Z,0
2023-04-25T01:27:22.487Z,0
2023-04-25T01:28:31.672Z,0
2023-04-25T01:29:40.823Z,0
2023-04-25T01:30:50.004Z,0
2023-04-25T01:31:59.165Z,0
2023-04-25T01:33:07.370Z,0
2023-04-25T01:34:15.570Z,0
2023-04-25T01:35:24.749Z,0
2023-04-25T01:36:33.905Z,0
2023-04-25T01:37:43.089Z,0
2023-04-25T01:38:52.247Z,0
2023-04-25T01:40:01.416Z,0
2023-04-25T01:41:10.585Z,0
2023-04-25T01:42:19.775Z,0
2023-04-25T01:43:28.928Z,0
2023-04-25T01:44:38.105Z,0
2023-04-25T01:45:47.286Z,0
2023-04-25T01:46:56.451Z,0
2023-04-25T01:48:05.633Z,0
2023-04-25T01:49:13.831Z,0
2023-04-25T01:50:22.984Z,0
2023-04-25T01:51:32.173Z,0
2023-04-25T01:52:41.341Z,0
2023-04-25T01:53:50.508Z,0
2023-04-25T01:54:59.683Z,0
2023-04-25T01:56:08.868Z,0
2023-04-25T01:57:17.049Z,0
2023-04-25T01:58:25.247Z,0
2023-04-25T01:59:33.432Z,0
2023-04-25T02:00:42.609Z,0
2023-04-25T02:01:51.805Z,0
2023-04-25T02:03:00.949Z,0
2023-04-25T02:04:09.146Z,0
2023-04-25T02:05:17.338Z,0
2023-04-25T02:06:26.509Z,0
2023-04-25T02:07:35.683Z,0
2023-04-25T02:08:44.851Z,0
2023-04-25T02:09:54.033Z,0
2023-04-25T02:11:03.202Z,0
2023-04-25T02:12:12.373Z,0
2023-04-25T02:13:21.532Z,0
2023-04-25T02:14:30.780Z,0
2023-04-25T02:15:40.056Z,0
2023-04-25T02:16:49.084Z,0
2023-04-25T02:17:58.242Z,0
2023-04-25T02:19:07.420Z,0
2023-04-25T02:20:15.596Z,0
2023-04-25T02:21:24.777Z,0
2023-04-25T02:22:33.938Z,0
2023-04-25T02:23:43.119Z,0
2023-04-25T02:24:52.286Z,0
2023-04-25T02:26:01.460Z,0
2023-04-25T02:27:10.641Z,0
2023-04-25T02:28:18.825Z,0
2023-04-25T02:29:27.011Z,0
2023-04-25T02:30:36.198Z,0
2023-04-25T02:31:45.363Z,0
2023-04-25T02:32:54.537Z,0
2023-04-25T02:34:03.707Z,0
2023-04-25T02:35:12.873Z,0
2023-04-25T02:37:30.243Z,0
2023-04-25T02:38:38.450Z,0
2023-04-25T02:39:46.648Z,0
2023-04-25T02:40:55.802Z,0
2023-04-25T02:42:04.975Z,0
2023-04-25T02:43:14.156Z,0
2023-04-25T02:44:23.330Z,0
2023-04-25T02:45:32.475Z,0
2023-04-25T02:46:41.685Z,0
2023-04-25T02:47:50.858Z,0
2023-04-25T02:49:00.006Z,0
2023-04-25T02:50:09.178Z,0
2023-04-25T02:51:18.357Z,0
2023-04-25T02:52:27.521Z,0
2023-04-25T02:53:36.690Z,0
2023-04-25T02:54:44.934Z,0
2023-04-25T02:55:54.065Z,0
2023-04-25T02:58:12.401Z,0
2023-04-25T02:59:21.582Z,0
2023-04-25T03:00:30.749Z,0
2023-04-25T03:01:39.911Z,0
2023-04-25T03:02:49.099Z,0
2023-04-25T03:03:57.295Z,0
2023-04-25T03:05:05.490Z,0
2023-04-25T03:06:14.638Z,0
2023-04-25T03:07:22.851Z,0
2023-04-25T03:08:31.033Z,0
2023-04-25T03:10:49.390Z,0
2023-04-25T03:11:58.547Z,0
2023-04-25T03:13:07.728Z,0
2023-04-25T03:14:16.900Z,0
2023-04-25T03:15:26.066Z,0
2023-04-25T03:16:35.286Z,0
2023-04-25T03:17:44.412Z,0
2023-04-25T03:18:53.585Z,0
2023-04-25T03:20:02.746Z,0
2023-04-25T03:21:11.939Z,0
2023-04-25T03:22:21.102Z,0
2023-04-25T03:23:29.290Z,0
2023-04-25T03:24:38.477Z,0
2023-04-25T03:25:47.639Z,0
2023-04-25T03:26:56.871Z,0
2023-04-25T03:28:06.060Z,0
2023-04-25T03:29:15.156Z,0
2023-04-25T03:30:24.331Z,0
2023-04-25T03:31:33.510Z,0
2023-04-25T03:32:41.703Z,0
2023-04-25T03:33:49.870Z,0
2023-04-25T03:34:59.052Z,0
2023-04-25T03:36:08.320Z,0
2023-04-25T03:37:17.407Z,0
2023-04-25T03:38:25.591Z,0
2023-04-25T03:39:33.780Z,0
2023-04-25T03:40:42.963Z,3
2023-04-25T03:43:01.309Z,3
2023-04-25T03:44:10.461Z,3
2023-04-25T03:45:19.644Z,3
2023-04-25T03:46:28.815Z,4
2023-04-25T03:47:37.997Z,0
2023-04-25T03:48:47.171Z,4
2023-04-25T03:49:56.338Z,4
2023-04-25T03:51:05.530Z,1
2023-04-25T03:52:14.681Z,1
2023-04-25T03:53:23.866Z,9
2023-04-25T03:54:32.048Z,5
2023-04-25T03:55:41.218Z,5
2023-04-25T03:56:50.383Z,10
2023-04-25T03:57:59.563Z,6
2023-04-25T03:59:08.740Z,4
2023-04-25T04:00:17.907Z,10
2023-04-25T04:01:27.075Z,32
2023-04-25T04:02:36.274Z,28
2023-04-25T04:03:45.424Z,33
2023-04-25T04:04:53.620Z,21
2023-04-25T04:06:01.818Z,12
2023-04-25T04:07:10.969Z,26
2023-04-25T04:08:20.152Z,34
2023-04-25T04:09:28.354Z,56
2023-04-25T04:10:36.554Z,57
2023-04-25T04:11:45.704Z,53
2023-04-25T04:12:54.884Z,62
2023-04-25T04:14:04.056Z,84
2023-04-25T04:15:13.234Z,81
2023-04-25T04:16:22.424Z,90
2023-04-25T04:17:31.582Z,108
2023-04-25T04:18:40.742Z,122
2023-04-25T04:19:49.904Z,145
2023-04-25T04:20:59.106Z,154
2023-04-25T04:22:08.267Z,173
2023-04-25T04:23:17.445Z,179
2023-04-25T04:24:26.614Z,193
2023-04-25T04:25:35.802Z,225
2023-04-25T04:26:43.963Z,248
2023-04-25T04:27:53.150Z,259
2023-04-25T04:29:02.324Z,303
2023-04-25T04:30:11.553Z,343
2023-04-25T04:31:20.663Z,371
2023-04-25T04:32:29.835Z,403
2023-04-25T04:33:38.986Z,440
2023-04-25T04:34:48.177Z,467
2023-04-25T04:35:57.364Z,489
2023-04-25T04:37:05.592Z,519
2023-04-25T04:38:13.734Z,544
2023-04-25T04:39:21.932Z,548
2023-04-25T04:40:30.111Z,551
2023-04-25T04:41:39.294Z,586
2023-04-25T04:42:48.466Z,610
2023-04-25T04:43:57.634Z,626
2023-04-25T04:45:06.809Z,650
2023-04-25T04:46:15.974Z,670
2023-04-25T04:47:25.146Z,717
2023-04-25T04:48:34.326Z,689
2023-04-25T04:50:52.705Z,776
2023-04-25T04:52:01.881Z,819
2023-04-25T04:53:11.021Z,871
2023-04-25T04:54:20.191Z,922
2023-04-25T04:55:28.416Z,953
2023-04-25T04:56:37.540Z,944
2023-04-25T04:57:46.712Z,986
2023-04-25T04:58:55.899Z,1025
2023-04-25T05:00:05.081Z,1081
2023-04-25T05:01:14.236Z,1114
2023-04-25T05:02:23.411Z,1182
2023-04-25T05:04:41.754Z,1314
2023-04-25T05:05:49.950Z,1325
2023-04-25T05:06:58.145Z,1378
2023-04-25T05:08:06.355Z,1451
2023-04-25T05:09:15.512Z,1535
2023-04-25T05:10:23.697Z,1589
2023-04-25T05:11:32.865Z,1682
2023-04-25T05:12:42.045Z,1746
2023-04-25T05:13:51.210Z,1748
2023-04-25T05:15:00.397Z,1769
2023-04-25T05:16:09.562Z,1795
2023-04-25T05:18:27.896Z,1841
2023-04-25T05:19:37.061Z,1925
2023-04-25T05:20:46.238Z,1942
2023-04-25T05:21:55.431Z,1921
2023-04-25T05:23:04.620Z,1943
2023-04-25T05:24:13.779Z,1974
2023-04-25T05:25:21.943Z,2026
2023-04-25T05:26:31.133Z,2096
2023-04-25T05:28:49.476Z,2071
2023-04-25T05:29:57.675Z,2125
2023-04-25T05:31:05.859Z,2208
2023-04-25T05:32:15.033Z,2221
2023-04-25T05:34:33.372Z,2342
2023-04-25T05:35:42.563Z,2436
2023-04-25T05:36:51.709Z,2507
2023-04-25T05:38:00.895Z,2560
2023-04-25T05:39:10.067Z,2565
2023-04-25T05:40:19.227Z,2606
2023-04-25T05:41:28.456Z,2608
2023-04-25T05:42:37.573Z,2638
2023-04-25T05:43:46.749Z,2696
2023-04-25T05:44:55.935Z,2747
2023-04-25T05:46:04.116Z,2766
2023-04-25T05:47:13.287Z,2776
2023-04-25T05:48:22.465Z,2813
2023-04-25T05:49:31.664Z,2876
2023-04-25T05:50:39.820Z,2850
2023-04-25T05:51:49.002Z,2860
2023-04-25T05:52:58.162Z,2870
2023-04-25T05:54:07.345Z,2856
2023-04-25T05:55:15.538Z,2901
2023-04-25T05:56:23.717Z,2954
2023-04-25T05:57:32.911Z,3033
2023-04-25T05:58:42.090Z,3047
2023-04-25T05:59:51.239Z,3140
2023-04-25T06:01:00.438Z,3124
2023-04-25T06:02:09.583Z,3194
2023-04-25T06:03:18.751Z,3193
2023-04-25T06:04:27.935Z,3270
2023-04-25T06:05:37.105Z,3291
2023-04-25T06:06:46.269Z,3360
2023-04-25T06:07:55.441Z,3392
2023-04-25T06:09:04.629Z,3492
2023-04-25T06:10:13.807Z,3558
2023-04-25T06:11:21.990Z,3474
2023-04-25T06:12:31.151Z,3455
2023-04-25T06:13:40.328Z,3548
2023-04-25T06:14:49.505Z,3474
2023-04-25T06:15:58.686Z,3469
2023-04-25T06:17:07.841Z,3677
2023-04-25T06:18:17.026Z,3648
2023-04-25T06:19:25.218Z,3709
2023-04-25T06:20:33.398Z,3793
2023-04-25T06:21:42.587Z,3843
2023-04-25T06:22:50.779Z,3972
2023-04-25T06:25:08.129Z,4013
2023-04-25T06:26:17.309Z,4039
2023-04-25T06:27:26.466Z,4188
2023-04-25T06:28:35.652Z,4255
2023-04-25T06:29:44.820Z,4361
2023-04-25T06:30:54.001Z,4340
2023-04-25T06:32:03.213Z,4315
2023-04-25T06:33:12.341Z,4227
2023-04-25T06:34:21.551Z,4385
2023-04-25T06:35:30.703Z,4540
2023-04-25T06:36:39.866Z,4474
2023-04-25T06:37:49.035Z,4551
2023-04-25T06:38:57.227Z,4676
2023-04-25T06:40:06.398Z,4684
2023-04-25T06:41:15.562Z,4795
2023-04-25T06:43:33.904Z,5054
2023-04-25T06:44:43.087Z,4893
2023-04-25T06:45:52.256Z,4795
2023-04-25T06:47:01.415Z,4810
2023-04-25T06:48:10.698Z,5007
2023-04-25T06:49:19.765Z,5122
2023-04-25T06:50:29.022Z,5184
2023-04-25T06:51:38.152Z,5096
2023-04-25T06:52:47.305Z,5153
2023-04-25T06:53:55.473Z,5102
2023-04-25T06:55:04.652Z,5277
2023-04-25T06:56:13.828Z,5443
2023-04-25T06:57:22.993Z,5604
2023-04-25T06:59:41.337Z,5610
2023-04-25T07:00:50.518Z,5500
2023-04-25T07:01:59.683Z,5681
2023-04-25T07:03:08.862Z,5377
2023-04-25T07:04:17.063Z,6002
2023-04-25T07:05:25.279Z,6049
2023-04-25T07:06:34.436Z,6169
2023-04-25T07:07:43.578Z,6156
2023-04-25T07:08:52.831Z,6183
2023-04-25T07:10:01.947Z,6040
2023-04-25T07:11:10.159Z,6159
2023-04-25T07:12:18.315Z,6127
2023-04-25T07:13:27.493Z,6230
2023-04-25T07:14:36.690Z,6342
2023-04-25T07:15:45.829Z,6358
2023-04-25T07:16:55.006Z,6259
2023-04-25T07:18:04.186Z,6065
2023-04-25T07:19:13.351Z,6062
2023-04-25T07:20:22.552Z,5985
2023-04-25T07:21:31.695Z,6164
2023-04-25T07:22:40.875Z,6326
2023-04-25T07:23:50.064Z,6206
2023-04-25T07:24:59.204Z,6770
2023-04-25T07:26:08.382Z,7098
2023-04-25T07:27:16.584Z,6887
2023-04-25T07:28:25.769Z,6835
2023-04-25T07:29:34.910Z,6271
2023-04-25T07:30:44.092Z,6510
2023-04-25T07:31:53.265Z,6248
2023-04-25T07:33:02.438Z,5486
2023-04-25T07:34:11.633Z,6761
2023-04-25T07:35:20.858Z,6795
2023-04-25T07:36:30.014Z,3779
2023-04-25T07:37:39.237Z,8634
2023-04-25T07:38:47.325Z,6188
2023-04-25T07:39:55.504Z,7644
2023-04-25T07:41:04.771Z,6355
2023-04-25T07:43:22.182Z,6215
2023-04-25T07:44:30.245Z,5351
2023-04-25T07:45:38.430Z,8164
2023-04-25T07:46:47.591Z,5550
2023-04-25T07:47:56.770Z,7111
2023-04-25T07:49:05.941Z,7037
2023-04-25T07:50:15.120Z,6104
2023-04-25T07:51:24.290Z,7918
2023-04-25T07:52:33.455Z,7345
2023-04-25T07:53:42.640Z,6613
2023-04-25T07:54:51.812Z,5825
2023-04-25T07:56:00.980Z,6097
2023-04-25T07:57:10.258Z,5507
2023-04-25T07:58:19.407Z,5504
2023-04-25T07:59:28.500Z,3008
2023-04-25T08:00:36.689Z,11347
2023-04-25T08:01:45.859Z,7806
2023-04-25T08:02:55.032Z,7962
2023-04-25T08:04:04.198Z,7654
2023-04-25T08:05:13.376Z,3485
2023-04-25T08:06:22.566Z,7913
2023-04-25T08:07:31.734Z,5334
2023-04-25T08:08:40.882Z,4551
2023-04-25T08:09:49.096Z,7012
2023-04-25T08:10:57.284Z,7642
2023-04-25T08:12:06.450Z,13770
2023-04-25T08:13:14.658Z,8185
2023-04-25T08:14:23.826Z,6518
2023-04-25T08:15:32.995Z,2683
2023-04-25T08:16:41.172Z,7382
2023-04-25T08:17:50.369Z,8744
2023-04-25T08:18:59.536Z,13055
2023-04-25T08:20:08.708Z,2649
2023-04-25T08:21:17.951Z,7289
2023-04-25T08:22:27.033Z,11401
2023-04-25T08:23:36.213Z,3483
2023-04-25T08:24:45.393Z,11986
2023-04-25T08:25:54.562Z,5268
2023-04-25T08:27:03.722Z,8383
2023-04-25T08:28:12.896Z,11266
2023-04-25T08:29:22.079Z,9964
2023-04-25T08:30:31.252Z,5518
2023-04-25T08:31:39.437Z,4534
2023-04-25T08:32:48.596Z,6557
2023-04-25T08:33:57.876Z,7185
2023-04-25T08:35:06.987Z,7419
2023-04-25T08:36:16.247Z,10359
2023-04-25T08:37:24.314Z,3407
2023-04-25T08:38:33.503Z,5009
2023-04-25T08:39:41.673Z,12008
2023-04-25T08:40:50.853Z,6819
2023-04-25T08:42:00.033Z,6050
2023-04-25T08:43:08.215Z,2795
2023-04-25T08:44:16.516Z,13058
2023-04-25T08:45:25.714Z,2778
2023-04-25T08:46:34.819Z,7507
2023-04-25T08:47:44.001Z,8601
2023-04-25T08:48:53.163Z,9636
2023-04-25T08:50:02.413Z,7920
2023-04-25T08:51:11.614Z,10675
2023-04-25T08:52:20.602Z,9381
2023-04-25T08:53:29.958Z,7246
2023-04-25T08:54:39.069Z,6679
2023-04-25T08:55:48.304Z,10356
2023-04-25T08:56:57.356Z,11479
2023-04-25T08:58:06.636Z,10687
2023-04-25T08:59:14.655Z,9082
2023-04-25T09:00:23.996Z,8178
2023-04-25T09:01:33.051Z,7095
2023-04-25T09:02:42.296Z,6775
2023-04-25T09:03:51.496Z,8242
2023-04-25T09:05:00.634Z,8250
2023-04-25T09:06:09.894Z,8384
2023-04-25T09:07:18.975Z,7740
2023-04-25T09:08:28.022Z,7365
2023-04-25T09:09:36.240Z,7079
2023-04-25T09:10:44.610Z,6167
2023-04-25T09:11:52.606Z,6156
2023-04-25T09:13:00.795Z,5540
2023-04-25T09:14:10.204Z,4906
2023-04-25T09:15:19.333Z,4478
2023-04-25T09:16:28.485Z,4240
2023-04-25T09:17:37.592Z,3961
2023-04-25T09:18:46.807Z,4072
2023-04-25T09:19:56.034Z,4390
2023-04-25T09:21:05.147Z,4334
2023-04-25T09:22:14.302Z,4944
2023-04-25T09:23:23.559Z,6012
2023-04-25T09:24:32.586Z,7024
2023-04-25T09:25:41.679Z,7468
2023-04-25T09:26:50.872Z,6927
2023-04-25T09:27:59.256Z,6898
2023-04-25T09:29:08.300Z,6833
2023-04-25T09:30:17.541Z,7228
2023-04-25T09:31:26.766Z,7882
2023-04-25T09:32:35.747Z,8529
2023-04-25T09:33:45.083Z,7296
2023-04-25T09:34:54.086Z,12432
2023-04-25T09:36:02.276Z,8792
2023-04-25T09:37:10.462Z,7939
2023-04-25T09:38:19.668Z,9891
2023-04-25T09:39:28.936Z,10006
2023-04-25T09:40:38.024Z,11022
2023-04-25T09:41:46.362Z,10400
2023-04-25T09:42:54.424Z,10138
2023-04-25T09:44:03.549Z,10156
2023-04-25T09:45:12.905Z,8084
2023-04-25T09:46:21.882Z,6557
2023-04-25T09:47:31.296Z,2934
2023-04-25T09:48:40.372Z,6734
2023-04-25T09:49:49.504Z,10790
2023-04-25T09:50:58.655Z,10938
2023-04-25T09:52:07.765Z,12301
2023-04-25T09:53:17.110Z,7650
2023-04-25T09:54:26.276Z,11176
2023-04-25T09:55:35.364Z,11183
2023-04-25T09:56:44.618Z,15355
2023-04-25T09:57:52.788Z,10268
2023-04-25T09:59:02.026Z,8408
2023-04-25T10:00:11.129Z,12133
2023-04-25T10:01:20.180Z,20511
2023-04-25T10:02:29.323Z,11862
2023-04-25T10:03:38.507Z,11433
2023-04-25T10:04:47.659Z,14858
2023-04-25T10:05:55.865Z,12174
2023-04-25T10:07:04.118Z,12463
2023-04-25T10:08:13.270Z,12822
2023-04-25T10:09:22.407Z,12063
2023-04-25T10:10:31.594Z,9944
2023-04-25T10:11:39.824Z,14715
2023-04-25T10:12:47.953Z,11420
2023-04-25T10:13:57.118Z,12340
2023-04-25T10:15:06.311Z,13561
2023-04-25T10:16:15.471Z,11686
2023-04-25T10:17:24.704Z,10047
2023-04-25T10:18:33.805Z,10592
2023-04-25T10:19:42.993Z,10916
2023-04-25T10:20:52.149Z,10403
2023-04-25T10:22:01.332Z,12489
2023-04-25T10:23:10.520Z,10619
2023-04-25T10:24:19.675Z,10410
2023-04-25T10:25:28.856Z,10697
2023-04-25T10:26:38.045Z,9152
2023-04-25T10:27:46.232Z,8120
2023-04-25T10:28:55.382Z,8167
2023-04-25T10:30:04.538Z,8341
2023-04-25T10:31:13.746Z,8066
2023-04-25T10:32:22.912Z,7354
2023-04-25T10:33:32.077Z,6213
2023-04-25T10:34:41.243Z,6134
2023-04-25T10:35:49.427Z,5400
2023-04-25T10:36:57.623Z,4596
2023-04-25T10:38:06.822Z,4265
2023-04-25T10:39:14.986Z,3773
2023-04-25T10:40:23.177Z,3555
2023-04-25T10:41:32.370Z,3344
2023-04-25T10:42:41.544Z,3201
2023-04-25T10:43:50.688Z,3370
2023-04-25T10:44:59.859Z,3405
2023-04-25T10:46:09.131Z,3137
2023-04-25T10:47:18.215Z,3004
2023-04-25T10:48:27.385Z,2806
2023-04-25T10:49:36.559Z,2592
2023-04-25T10:50:45.836Z,3229
2023-04-25T10:51:55.198Z,4257
2023-04-25T10:53:04.285Z,5003
2023-04-25T10:54:13.421Z,5787
2023-04-25T10:55:21.653Z,6419
2023-04-25T10:57:39.972Z,6115
2023-04-25T10:58:48.951Z,6878
2023-04-25T10:59:58.280Z,7315
2023-04-25T11:01:07.517Z,7751
2023-04-25T11:02:16.469Z,7628
2023-04-25T11:03:25.820Z,7250
2023-04-25T11:04:34.805Z,6803
2023-04-25T11:05:44.038Z,6591
2023-04-25T11:06:53.318Z,6911
2023-04-25T11:08:02.564Z,7315
2023-04-25T11:09:11.500Z,7669
2023-04-25T11:10:19.868Z,8112
2023-04-25T11:11:29.052Z,8167
2023-04-25T11:12:38.197Z,8048
2023-04-25T11:14:56.589Z,7106
2023-04-25T11:16:05.614Z,7751
2023-04-25T11:17:14.719Z,7887
2023-04-25T11:18:24.086Z,8696
2023-04-25T11:19:33.167Z,9427
2023-04-25T11:20:42.417Z,9016
2023-04-25T11:21:51.595Z,8392
2023-04-25T11:23:00.777Z,9258
2023-04-25T11:24:09.990Z,9339
2023-04-25T11:25:18.217Z,9625
2023-04-25T11:26:27.366Z,9831
2023-04-25T11:27:36.551Z,9434
2023-04-25T11:28:45.764Z,7993
2023-04-25T11:29:54.799Z,9460
2023-04-25T11:31:04.016Z,9418
2023-04-25T11:32:13.138Z,9487
2023-04-25T11:33:22.294Z,9478
2023-04-25T11:34:31.451Z,9742
2023-04-25T11:35:40.498Z,10356
2023-04-25T11:36:49.879Z,10656
2023-04-25T11:37:58.835Z,11502
2023-04-25T11:39:08.021Z,11414
2023-04-25T11:40:16.225Z,10977
2023-04-25T11:41:26.846Z,11779
2023-04-25T11:42:34.743Z,12404
2023-04-25T11:43:43.709Z,11409
2023-04-25T11:44:53.066Z,10877
2023-04-25T11:46:02.290Z,10887
2023-04-25T11:47:11.441Z,7267
2023-04-25T11:48:26.132Z,4040
2023-04-25T11:49:29.755Z,12820
2023-04-25T11:50:38.919Z,12327
2023-04-25T11:51:48.123Z,12058
2023-04-25T11:52:57.244Z,12530
2023-04-25T11:54:06.460Z,13246
2023-04-25T11:55:14.684Z,12972
2023-04-25T11:56:22.792Z,13137
2023-04-25T11:57:31.973Z,12827
2023-04-25T11:59:50.278Z,12217
2023-04-25T12:02:07.670Z,11896
2023-04-25T12:03:15.925Z,11592
2023-04-25T12:04:24.129Z,11871
2023-04-25T12:05:33.369Z,11618
2023-04-25T12:06:42.435Z,12353
2023-04-25T12:07:51.607Z,10421
2023-04-25T12:09:00.764Z,11544
2023-04-25T12:10:09.775Z,11651
2023-04-25T12:11:19.124Z,11816
2023-04-25T12:12:28.279Z,12032
2023-04-25T12:13:37.559Z,11996
2023-04-25T12:14:46.676Z,12007
2023-04-25T12:15:55.861Z,12080
2023-04-25T12:17:04.821Z,13425
2023-04-25T12:18:14.097Z,10174
2023-04-25T12:19:22.172Z,17264
2023-04-25T12:20:31.510Z,5323
2023-04-25T12:21:40.630Z,13550
2023-04-25T12:22:49.925Z,14888
2023-04-25T12:23:59.011Z,18674
2023-04-25T12:25:08.191Z,4211
2023-04-25T12:26:17.360Z,15096
2023-04-25T12:27:25.551Z,17566
2023-04-25T12:28:33.762Z,27538
2023-04-25T12:29:42.940Z,14782
2023-04-25T12:30:51.936Z,12472
2023-04-25T12:32:00.293Z,13412
2023-04-25T12:33:08.460Z,12803
2023-04-25T12:34:17.584Z,12866
2023-04-25T12:35:26.779Z,11269
2023-04-25T12:36:35.994Z,6093
2023-04-25T12:37:45.209Z,31986
2023-04-25T12:38:54.254Z,25737
2023-04-25T12:40:03.460Z,12731
2023-04-25T12:41:12.675Z,10403
2023-04-25T12:42:21.798Z,6659
2023-04-25T12:43:30.886Z,30183
2023-04-25T12:44:40.262Z,29192
2023-04-25T12:45:49.327Z,12824
2023-04-25T12:46:58.487Z,12475
2023-04-25T12:48:07.746Z,11829
2023-04-25T12:49:15.903Z,11513
2023-04-25T12:50:25.128Z,8889
2023-04-25T12:51:34.217Z,5092
2023-04-25T12:52:43.401Z,3971
2023-04-25T12:53:52.605Z,3464
2023-04-25T12:55:01.650Z,3248
2023-04-25T12:56:10.947Z,2183
2023-04-25T12:57:19.157Z,2294
2023-04-25T12:58:27.213Z,1412
2023-04-25T12:59:36.475Z,3700
2023-04-25T13:00:45.674Z,7502
2023-04-25T13:03:04.134Z,11588
2023-04-25T13:04:12.207Z,13895
2023-04-25T13:05:20.409Z,14415
2023-04-25T13:06:29.554Z,11937
2023-04-25T13:07:38.724Z,16044
2023-04-25T13:08:47.844Z,13153
2023-04-25T13:09:56.912Z,19309
2023-04-25T13:11:06.263Z,28391
2023-04-25T13:12:15.250Z,27384
2023-04-25T13:13:24.608Z,29197
2023-04-25T13:14:33.783Z,24096
2023-04-25T13:15:42.974Z,25801
2023-04-25T13:16:52.049Z,36958
2023-04-25T13:18:01.295Z,28602
2023-04-25T13:19:10.498Z,15026
2023-04-25T13:20:18.688Z,12598
2023-04-25T13:21:27.816Z,13504
2023-04-25T13:22:37.025Z,11746
2023-04-25T13:23:46.049Z,7495
2023-04-25T13:24:55.346Z,4840
2023-04-25T13:26:04.527Z,3445
2023-04-25T13:27:13.617Z,3036
2023-04-25T13:28:22.791Z,3049
2023-04-25T13:29:32.041Z,3111
2023-04-25T13:30:41.197Z,3669
2023-04-25T13:31:50.413Z,3962
2023-04-25T13:32:58.475Z,5185
2023-04-25T13:34:07.696Z,7220
2023-04-25T13:35:16.809Z,9351
2023-04-25T13:36:25.913Z,10947
2023-04-25T13:37:35.159Z,26591
2023-04-25T13:38:44.260Z,34865
2023-04-25T13:39:53.498Z,19448
2023-04-25T13:41:02.672Z,17155
2023-04-25T13:42:11.828Z,18799
2023-04-25T13:43:20.952Z,14117
2023-04-25T13:44:30.238Z,13868
2023-04-25T13:45:39.408Z,15613
2023-04-25T13:46:48.636Z,15829
2023-04-25T13:47:56.708Z,19204
2023-04-25T13:49:05.836Z,18907
2023-04-25T13:50:15.031Z,27562
2023-04-25T13:51:24.163Z,27559
2023-04-25T13:52:33.444Z,49130
2023-04-25T13:53:42.505Z,39609
2023-04-25T13:54:51.759Z,42745
2023-04-25T13:56:00.901Z,38504
2023-04-25T13:57:10.027Z,56213
2023-04-25T13:58:19.230Z,32382
2023-04-25T13:59:28.391Z,40235
2023-04-25T14:00:37.550Z,49414
2023-04-25T14:01:46.792Z,50177
2023-04-25T14:02:54.911Z,40059
2023-04-25T14:04:04.074Z,45346
2023-04-25T14:05:13.256Z,33679
2023-04-25T14:06:22.423Z,44364
2023-04-25T14:07:31.599Z,50308
2023-04-25T14:08:40.757Z,28526
2023-04-25T14:09:49.973Z,40222
2023-04-25T14:10:59.107Z,12956
2023-04-25T14:12:08.294Z,54755
2023-04-25T14:13:17.479Z,49603
2023-04-25T14:14:26.626Z,54698
2023-04-25T14:15:35.805Z,31913
2023-04-25T14:16:44.987Z,41719
2023-04-25T14:17:53.167Z,58362
2023-04-25T14:19:02.385Z,54184
2023-04-25T14:20:11.535Z,45822
2023-04-25T14:21:20.708Z,80
2023-04-25T14:22:29.941Z,51318
2023-04-25T14:23:39.192Z,29904
2023-04-25T14:24:48.216Z,57267
2023-04-25T14:25:57.401Z,32142
2023-04-25T14:27:06.568Z,19059
2023-04-25T14:28:15.728Z,65284
2023-04-25T14:29:24.909Z,49943
2023-04-25T14:30:34.097Z,16368
2023-04-25T14:31:43.252Z,10794
2023-04-25T14:32:51.451Z,8785
2023-04-25T14:34:00.652Z,7831
2023-04-25T14:35:09.860Z,7557
2023-04-25T14:36:18.953Z,6779
2023-04-25T14:37:28.121Z,6582
2023-04-25T14:38:37.313Z,6632
2023-04-25T14:39:46.481Z,7142
2023-04-25T14:40:55.674Z,4522
2023-04-25T14:42:04.871Z,10190
2023-04-25T14:43:14.108Z,56740
2023-04-25T14:44:23.145Z,1004
2023-04-25T14:45:31.352Z,54266
2023-04-25T14:46:39.615Z,31771
2023-04-25T14:47:48.771Z,17502
2023-04-25T14:48:57.963Z,14638
2023-04-25T14:50:07.063Z,21252
2023-04-25T14:51:16.318Z,12025
2023-04-25T14:52:25.465Z,7894
2023-04-25T14:53:34.618Z,6327
2023-04-25T14:54:43.802Z,5891
2023-04-25T14:55:52.909Z,6771
2023-04-25T14:57:02.133Z,13121
2023-04-25T14:58:11.271Z,10280
2023-04-25T14:59:20.434Z,45106
2023-04-25T15:00:29.613Z,20034
2023-04-25T15:01:37.982Z,29035
2023-04-25T15:02:47.135Z,25058
2023-04-25T15:03:56.197Z,14521
2023-04-25T15:05:05.472Z,27249
2023-04-25T15:06:14.532Z,8089
2023-04-25T15:07:23.826Z,15136
2023-04-25T15:08:32.867Z,13825
2023-04-25T15:09:41.031Z,36253
2023-04-25T15:10:49.333Z,57789
2023-04-25T15:11:58.450Z,33295
2023-04-25T15:13:06.601Z,10516
2023-04-25T15:14:14.811Z,5941
2023-04-25T15:15:24.005Z,37712
2023-04-25T15:16:33.228Z,17400
2023-04-25T15:17:42.274Z,21807
2023-04-25T15:18:51.640Z,28323
2023-04-25T15:20:00.626Z,33312
2023-04-25T15:21:09.813Z,31878
2023-04-25T15:22:18.973Z,30551
2023-04-25T15:23:28.143Z,34270
2023-04-25T15:24:37.453Z,32973
2023-04-25T15:25:46.578Z,6983
2023-04-25T15:26:55.810Z,47054
2023-04-25T15:28:04.955Z,57954
2023-04-25T15:29:13.036Z,11112
2023-04-25T15:30:22.325Z,18854
2023-04-25T15:31:31.452Z,18657
2023-04-25T15:32:40.693Z,28479
2023-04-25T15:33:49.846Z,20796
2023-04-25T15:34:58.877Z,32409
2023-04-25T15:36:08.081Z,21726
2023-04-25T15:37:16.340Z,20091
2023-04-25T15:38:24.463Z,28878
2023-04-25T15:39:33.743Z,23866
2023-04-25T15:40:42.879Z,25247
2023-04-25T15:41:51.972Z,26241
2023-04-25T15:44:09.421Z,25730
2023-04-25T15:45:17.702Z,54672
2023-04-25T15:46:25.773Z,18689
2023-04-25T15:47:34.871Z,0
2023-04-25T15:49:53.274Z,49587
2023-04-25T15:51:02.569Z,11325
2023-04-25T15:52:11.587Z,8272
2023-04-25T15:53:20.912Z,7350
2023-04-25T15:54:29.983Z,7909
2023-04-25T15:55:39.072Z,8014
2023-04-25T15:56:48.248Z,7134
2023-04-25T15:57:57.627Z,6941
2023-04-25T15:59:06.756Z,6950
2023-04-25T16:00:15.825Z,4790
2023-04-25T16:01:24.009Z,0
2023-04-25T16:02:33.136Z,49920
2023-04-25T16:03:42.301Z,5320